Time;durP1;ratioP1;P1;durP2;ratioP2;P2;SDS_P1;SDS_P2;PMS_P1;PMS_P2;Temp;Humidity;BMP_temperature;BMP_pressure;BME280_temperature;BME280_humidity;BME280_pressure;Samples;Min_cycle;Max_cycle;Signal;HPM_P1;HPM_P2
2020/12/28 00:00:31;;;;;;;14.30;3.30;;;;;;;;;;5034043;28;20037;-68
2020/12/28 00:02:56;;;;;;;12.32;3.20;;;;;;;;;;5039740;28;20373;-68
2020/12/28 00:05:22;;;;;;;16.00;3.70;;;;;;;;;;5053805;28;20035;-68
2020/12/28 00:07:48;;;;;;;15.60;3.50;;;;;;;;;;5053336;28;20037;-68
2020/12/28 00:10:13;;;;;;;14.60;3.72;;;;;;;;;;5053546;28;20476;-68
2020/12/28 00:12:47;;;;;;;13.07;3.80;;;;;;;;;;5053754;28;20045;-66
2020/12/28 00:15:19;;;;;;;20.48;3.65;;;;;;;;;;5053426;28;20045;-68
2020/12/28 00:17:51;;;;;;;29.65;8.18;;;;;;;;;;5053755;28;20037;-68
2020/12/28 00:20:17;;;;;;;15.48;5.13;;;;;;;;;;5053904;28;20033;-69
2020/12/28 00:22:42;;;;;;;15.98;4.35;;;;;;;;;;5052744;28;20032;-68
2020/12/28 00:25:08;;;;;;;11.77;3.92;;;;;;;;;;5053546;28;20029;-68
2020/12/28 00:27:33;;;;;;;13.73;4.07;;;;;;;;;;5053581;28;20033;-67
2020/12/28 00:29:58;;;;;;;12.90;4.82;;;;;;;;;;5049183;28;20359;-67
2020/12/28 00:32:24;;;;;;;20.63;6.05;;;;;;;;;;5033376;28;20406;-66
2020/12/28 00:34:49;;;;;;;25.30;8.10;;;;;;;;;;5038239;28;20029;-67
2020/12/28 00:37:14;;;;;;;60.40;16.23;;;;;;;;;;5034876;28;20024;-67
2020/12/28 00:39:40;;;;;;;51.03;16.15;;;;;;;;;;5037703;28;20040;-69
2020/12/28 00:42:05;;;;;;;39.35;11.93;;;;;;;;;;5046362;28;20044;-68
2020/12/28 00:44:30;;;;;;;35.38;8.63;;;;;;;;;;5052737;28;20024;-67
2020/12/28 00:46:55;;;;;;;62.28;14.10;;;;;;;;;;5053009;28;20061;-68
2020/12/28 00:49:21;;;;;;;49.33;12.85;;;;;;;;;;5045921;28;20043;-69
2020/12/28 00:51:46;;;;;;;26.98;8.88;;;;;;;;;;5032546;28;20037;-68
2020/12/28 00:54:11;;;;;;;20.02;6.45;;;;;;;;;;5033254;28;20037;-68
2020/12/28 00:56:36;;;;;;;21.80;6.63;;;;;;;;;;5032955;28;20054;-65
2020/12/28 00:59:02;;;;;;;38.25;11.38;;;;;;;;;;5033171;28;20116;-65
2020/12/28 01:01:27;;;;;;;66.85;15.52;;;;;;;;;;5033196;28;20060;-65
2020/12/28 01:03:52;;;;;;;418.05;31.92;;;;;;;;;;5032833;28;20040;-66
2020/12/28 01:06:17;;;;;;;49.30;12.43;;;;;;;;;;5036849;28;20501;-70
2020/12/28 01:08:43;;;;;;;20.60;7.97;;;;;;;;;;5044698;28;20025;-68
2020/12/28 01:11:08;;;;;;;17.77;7.57;;;;;;;;;;5032606;28;20488;-68
2020/12/28 01:13:33;;;;;;;28.90;7.80;;;;;;;;;;5032350;28;20022;-69
2020/12/28 01:15:59;;;;;;;15.77;6.88;;;;;;;;;;5032797;28;20476;-68
2020/12/28 01:18:24;;;;;;;16.52;5.60;;;;;;;;;;5032911;28;20385;-68
2020/12/28 01:20:49;;;;;;;19.00;6.50;;;;;;;;;;5032434;28;20469;-67
2020/12/28 01:23:14;;;;;;;28.45;6.35;;;;;;;;;;5031607;28;20084;-70
2020/12/28 01:25:40;;;;;;;26.63;7.60;;;;;;;;;;5032639;28;20488;-67
2020/12/28 01:28:05;;;;;;;31.77;7.32;;;;;;;;;;5032313;28;20022;-65
2020/12/28 01:30:30;;;;;;;21.75;6.57;;;;;;;;;;5032294;28;20029;-65
2020/12/28 01:32:55;;;;;;;14.45;5.60;;;;;;;;;;5032098;28;20064;-66
2020/12/28 01:35:21;;;;;;;18.40;6.57;;;;;;;;;;5035045;28;20378;-65
2020/12/28 01:37:46;;;;;;;17.40;6.43;;;;;;;;;;5035501;28;20037;-66
2020/12/28 01:40:11;;;;;;;17.67;6.43;;;;;;;;;;5036119;28;20112;-66
2020/12/28 01:42:36;;;;;;;20.15;7.07;;;;;;;;;;5033277;28;20040;-68
2020/12/28 01:45:03;;;;;;;24.33;11.07;;;;;;;;;;5034818;28;20069;-68
2020/12/28 01:47:28;;;;;;;31.70;11.52;;;;;;;;;;5035954;28;20139;-68
2020/12/28 01:49:54;;;;;;;29.17;9.65;;;;;;;;;;5036413;28;20509;-68
2020/12/28 01:52:19;;;;;;;24.23;9.65;;;;;;;;;;5035603;28;20071;-68
2020/12/28 01:54:44;;;;;;;29.05;9.65;;;;;;;;;;5035859;28;20090;-65
2020/12/28 01:57:10;;;;;;;24.25;7.82;;;;;;;;;;5035539;28;20155;-66
2020/12/28 01:59:35;;;;;;;27.33;8.02;;;;;;;;;;5036076;28;20112;-65
2020/12/28 02:02:02;;;;;;;28.02;8.23;;;;;;;;;;5035659;28;20033;-65
2020/12/28 02:04:27;;;;;;;21.83;7.78;;;;;;;;;;5035671;28;20068;-65
2020/12/28 02:06:52;;;;;;;27.38;7.88;;;;;;;;;;5035976;28;20793;-66
2020/12/28 02:09:18;;;;;;;19.63;6.65;;;;;;;;;;5036119;28;20052;-66
2020/12/28 02:11:43;;;;;;;18.85;6.97;;;;;;;;;;5036019;28;20022;-65
2020/12/28 02:14:08;;;;;;;17.92;5.68;;;;;;;;;;5035270;28;20045;-70
2020/12/28 02:16:33;;;;;;;19.67;7.10;;;;;;;;;;5035202;28;20029;-68
2020/12/28 02:18:59;;;;;;;17.73;6.95;;;;;;;;;;5035945;28;20017;-70
2020/12/28 02:21:25;;;;;;;18.30;6.07;;;;;;;;;;5035655;28;20079;-69
2020/12/28 02:23:50;;;;;;;14.70;5.32;;;;;;;;;;5035801;28;20426;-68
2020/12/28 02:26:15;;;;;;;14.48;5.13;;;;;;;;;;5035593;28;20017;-68
2020/12/28 02:28:40;;;;;;;17.50;6.28;;;;;;;;;;5035634;28;20064;-66
2020/12/28 02:31:06;;;;;;;15.77;5.75;;;;;;;;;;5035186;28;20033;-66
2020/12/28 02:33:31;;;;;;;16.15;5.43;;;;;;;;;;5035254;28;20053;-66
2020/12/28 02:35:56;;;;;;;20.17;6.50;;;;;;;;;;5035146;28;20029;-68
2020/12/28 02:38:22;;;;;;;17.30;5.43;;;;;;;;;;5034600;28;20045;-68
2020/12/28 02:40:47;;;;;;;25.90;5.95;;;;;;;;;;5037409;28;20057;-65
2020/12/28 02:43:13;;;;;;;22.17;6.07;;;;;;;;;;5055647;28;20041;-66
2020/12/28 02:45:38;;;;;;;13.98;5.20;;;;;;;;;;5049830;28;20377;-66
2020/12/28 02:48:03;;;;;;;19.48;5.20;;;;;;;;;;5035089;28;20029;-65
2020/12/28 02:50:29;;;;;;;15.30;4.95;;;;;;;;;;5034738;28;20042;-66
2020/12/28 02:52:54;;;;;;;19.20;5.38;;;;;;;;;;5035152;28;20084;-65
2020/12/28 02:55:19;;;;;;;19.00;5.80;;;;;;;;;;5035097;28;20108;-66
2020/12/28 02:57:45;;;;;;;18.90;5.72;;;;;;;;;;5035033;28;20026;-66
2020/12/28 03:00:10;;;;;;;18.38;5.50;;;;;;;;;;5034768;28;20375;-68
2020/12/28 03:02:36;;;;;;;16.10;5.25;;;;;;;;;;5034908;28;20155;-68
2020/12/28 03:05:01;;;;;;;19.27;5.57;;;;;;;;;;5035075;28;20030;-68
2020/12/28 03:07:26;;;;;;;16.05;5.57;;;;;;;;;;5034660;28;20064;-70
2020/12/28 03:09:53;;;;;;;16.55;5.35;;;;;;;;;;5034709;28;20022;-68
2020/12/28 03:12:18;;;;;;;15.95;4.78;;;;;;;;;;5034989;28;20390;-68
2020/12/28 03:14:43;;;;;;;14.90;4.82;;;;;;;;;;5034526;28;20041;-66
2020/12/28 03:17:09;;;;;;;16.45;4.70;;;;;;;;;;5034773;28;20049;-68
2020/12/28 03:19:34;;;;;;;19.58;5.85;;;;;;;;;;5034150;28;20021;-68
2020/12/28 03:21:59;;;;;;;15.98;5.53;;;;;;;;;;5034443;28;20469;-67
2020/12/28 03:24:25;;;;;;;27.02;6.15;;;;;;;;;;5034205;28;20063;-69
2020/12/28 03:26:50;;;;;;;18.13;5.68;;;;;;;;;;5034265;28;20043;-68
2020/12/28 03:29:15;;;;;;;19.63;6.15;;;;;;;;;;5033915;28;20047;-72
2020/12/28 03:31:41;;;;;;;18.40;5.50;;;;;;;;;;5034212;28;20017;-68
2020/12/28 03:34:06;;;;;;;26.45;6.47;;;;;;;;;;5033244;28;20478;-68
2020/12/28 03:36:31;;;;;;;20.08;6.45;;;;;;;;;;5033323;28;20063;-70
2020/12/28 03:38:57;;;;;;;26.63;6.43;;;;;;;;;;5034100;28;20104;-68
2020/12/28 03:41:22;;;;;;;22.27;6.55;;;;;;;;;;5041522;28;20477;-68
2020/12/28 03:43:47;;;;;;;21.83;5.80;;;;;;;;;;5049815;28;20048;-68
2020/12/28 03:46:13;;;;;;;21.55;6.15;;;;;;;;;;5034090;28;20489;-68
2020/12/28 03:48:38;;;;;;;31.75;6.50;;;;;;;;;;5034233;28;20025;-67
2020/12/28 03:51:03;;;;;;;27.27;6.50;;;;;;;;;;5034055;28;20029;-66
2020/12/28 03:53:28;;;;;;;28.85;6.75;;;;;;;;;;5034103;28;20171;-67
2020/12/28 03:55:54;;;;;;;32.30;6.60;;;;;;;;;;5033524;28;20037;-67
2020/12/28 03:58:19;;;;;;;28.52;6.78;;;;;;;;;;5032930;28;20527;-67
2020/12/28 04:00:45;;;;;;;18.48;5.75;;;;;;;;;;5032935;28;20119;-71
2020/12/28 04:03:10;;;;;;;25.25;7.05;;;;;;;;;;5034047;28;20045;-65
2020/12/28 04:05:35;;;;;;;34.38;8.02;;;;;;;;;;5033293;28;20164;-67
2020/12/28 04:08:00;;;;;;;34.60;10.02;;;;;;;;;;5033790;28;20477;-66
2020/12/28 04:10:28;;;;;;;38.20;9.27;;;;;;;;;;5033646;28;20068;-70
2020/12/28 04:12:53;;;;;;;36.45;9.93;;;;;;;;;;5033398;28;20157;-66
2020/12/28 04:15:18;;;;;;;31.98;10.60;;;;;;;;;;5033551;28;20100;-66
2020/12/28 04:17:44;;;;;;;43.17;10.48;;;;;;;;;;5033323;28;20029;-69
2020/12/28 04:20:09;;;;;;;34.10;10.40;;;;;;;;;;5033361;28;20034;-69
2020/12/28 04:22:34;;;;;;;53.95;11.20;;;;;;;;;;5033293;28;20013;-70
2020/12/28 04:24:59;;;;;;;44.35;12.63;;;;;;;;;;5033786;28;20389;-68
2020/12/28 04:27:25;;;;;;;48.35;11.80;;;;;;;;;;5033133;28;20034;-67
2020/12/28 04:29:50;;;;;;;44.97;12.73;;;;;;;;;;5033399;28;20435;-68
2020/12/28 04:32:15;;;;;;;49.03;13.45;;;;;;;;;;5032846;28;20068;-70
2020/12/28 04:34:40;;;;;;;52.72;13.35;;;;;;;;;;5033055;28;20382;-65
2020/12/28 04:37:06;;;;;;;58.60;12.50;;;;;;;;;;5032807;28;20375;-68
2020/12/28 04:39:31;;;;;;;37.70;10.73;;;;;;;;;;5033425;28;20476;-65
2020/12/28 04:41:57;;;;;;;56.45;12.30;;;;;;;;;;5045074;28;20056;-66
2020/12/28 04:44:22;;;;;;;44.47;10.85;;;;;;;;;;5050781;28;20024;-66
2020/12/28 04:46:47;;;;;;;37.92;9.88;;;;;;;;;;5032988;28;20112;-67
2020/12/28 04:49:13;;;;;;;46.60;9.80;;;;;;;;;;5037777;28;20116;-68
2020/12/28 04:51:38;;;;;;;44.90;9.73;;;;;;;;;;5047543;28;20040;-67
2020/12/28 04:54:04;;;;;;;36.72;8.75;;;;;;;;;;5053490;28;20033;-66
2020/12/28 04:56:29;;;;;;;33.67;8.68;;;;;;;;;;5033634;28;20040;-67
2020/12/28 04:58:54;;;;;;;31.08;7.90;;;;;;;;;;5032904;28;20382;-65
2020/12/28 05:01:20;;;;;;;32.85;6.97;;;;;;;;;;5031918;28;20068;-67
2020/12/28 05:03:45;;;;;;;34.25;6.82;;;;;;;;;;5033449;28;20373;-66
2020/12/28 05:06:10;;;;;;;40.97;8.07;;;;;;;;;;5032429;28;20477;-67
2020/12/28 05:08:42;;;;;;;35.60;7.72;;;;;;;;;;5032173;28;20033;-69
2020/12/28 05:11:07;;;;;;;31.15;6.25;;;;;;;;;;5032694;28;20080;-69
2020/12/28 05:13:33;;;;;;;33.85;5.93;;;;;;;;;;5032355;28;20630;-71
2020/12/28 05:15:58;;;;;;;17.45;3.95;;;;;;;;;;5032630;28;20112;-68
2020/12/28 05:18:24;;;;;;;12.82;2.55;;;;;;;;;;5032602;28;20069;-68
2020/12/28 05:20:50;;;;;;;9.52;2.05;;;;;;;;;;5032556;28;20020;-71
2020/12/28 05:23:15;;;;;;;11.30;2.28;;;;;;;;;;5032520;28;20139;-69
2020/12/28 05:25:51;;;;;;;6.68;1.67;;;;;;;;;;5032478;28;20037;-69
2020/12/28 05:28:26;;;;;;;9.73;2.05;;;;;;;;;;5032794;28;20036;-66
2020/12/28 05:30:52;;;;;;;11.85;1.83;;;;;;;;;;5032133;28;20037;-67
2020/12/28 05:33:18;;;;;;;9.50;1.90;;;;;;;;;;5032087;28;20091;-66
2020/12/28 05:35:43;;;;;;;5.25;1.38;;;;;;;;;;5032150;28;20474;-66
2020/12/28 05:38:09;;;;;;;8.20;1.80;;;;;;;;;;5032372;28;20022;-66
2020/12/28 05:40:35;;;;;;;5.18;1.67;;;;;;;;;;5032239;28;20524;-66
2020/12/28 05:43:01;;;;;;;3.03;1.23;;;;;;;;;;5052680;28;20033;-66
2020/12/28 05:45:26;;;;;;;4.28;1.10;;;;;;;;;;5040238;28;20037;-66
2020/12/28 05:47:52;;;;;;;3.83;1.00;;;;;;;;;;5032472;28;20053;-66
2020/12/28 05:50:20;;;;;;;1.75;0.80;;;;;;;;;;5032189;28;20037;-66
2020/12/28 05:52:48;;;;;;;2.35;0.80;;;;;;;;;;5032279;28;20366;-66
2020/12/28 05:55:16;;;;;;;3.28;0.90;;;;;;;;;;5032376;28;20040;-67
2020/12/28 05:57:42;;;;;;;0.80;0.55;;;;;;;;;;5031864;28;20043;-69
2020/12/28 06:00:08;;;;;;;3.08;0.82;;;;;;;;;;5032298;28;20029;-66
2020/12/28 06:02:34;;;;;;;1.55;0.70;;;;;;;;;;5031819;28;20036;-68
2020/12/28 06:04:59;;;;;;;2.58;0.85;;;;;;;;;;5032464;28;20036;-66
2020/12/28 06:07:24;;;;;;;2.15;1.00;;;;;;;;;;5032023;28;20014;-66
2020/12/28 06:09:56;;;;;;;8.90;1.00;;;;;;;;;;5032416;28;20434;-66
2020/12/28 06:12:21;;;;;;;3.17;0.93;;;;;;;;;;5031574;28;20037;-66
2020/12/28 06:14:47;;;;;;;5.40;1.00;;;;;;;;;;5032117;28;20462;-67
2020/12/28 06:17:12;;;;;;;6.63;1.40;;;;;;;;;;5031991;28;20096;-70
2020/12/28 06:19:39;;;;;;;7.25;1.25;;;;;;;;;;5032041;28;20076;-69
2020/12/28 06:22:16;;;;;;;2.28;1.05;;;;;;;;;;5032689;28;20444;-69
2020/12/28 06:24:42;;;;;;;5.10;1.50;;;;;;;;;;5035752;28;20037;-69
2020/12/28 06:27:08;;;;;;;3.33;1.20;;;;;;;;;;5035483;28;20029;-69
2020/12/28 06:29:34;;;;;;;4.78;1.63;;;;;;;;;;5035541;28;20025;-67
2020/12/28 06:32:10;;;;;;;5.85;1.75;;;;;;;;;;5035461;28;20072;-68
2020/12/28 06:34:35;;;;;;;8.30;1.98;;;;;;;;;;5029274;28;20041;-67
2020/12/28 06:37:01;;;;;;;6.45;2.35;;;;;;;;;;5035456;28;20037;-66
2020/12/28 06:39:26;;;;;;;12.00;3.03;;;;;;;;;;5034843;28;20052;-68
2020/12/28 06:41:51;;;;;;;9.27;2.80;;;;;;;;;;5042225;28;20014;-66
2020/12/28 06:44:26;;;;;;;13.45;3.38;;;;;;;;;;5035082;28;20046;-67
2020/12/28 06:46:52;;;;;;;9.45;2.97;;;;;;;;;;5035292;28;20037;-66
2020/12/28 06:49:18;;;;;;;12.88;3.33;;;;;;;;;;5035215;28;20041;-66
2020/12/28 06:51:43;;;;;;;15.75;3.70;;;;;;;;;;5034916;28;20692;-67
2020/12/28 06:54:08;;;;;;;17.48;4.30;;;;;;;;;;5034310;28;20135;-66
2020/12/28 06:56:33;;;;;;;23.60;4.18;;;;;;;;;;5034750;28;20489;-66
2020/12/28 06:58:59;;;;;;;15.85;3.88;;;;;;;;;;5035154;28;20108;-66
2020/12/28 07:01:25;;;;;;;17.52;4.18;;;;;;;;;;5040311;28;20473;-67
2020/12/28 07:03:51;;;;;;;34.13;5.40;;;;;;;;;;5049115;28;20025;-67
2020/12/28 07:06:17;;;;;;;29.55;5.43;;;;;;;;;;5055023;28;20032;-67
2020/12/28 07:08:42;;;;;;;8.65;2.25;;;;;;;;;;5037182;28;20486;-67
2020/12/28 07:11:07;;;;;;;13.73;3.38;;;;;;;;;;5034797;28;20036;-68
2020/12/28 07:13:33;;;;;;;14.95;2.95;;;;;;;;;;5033207;28;20063;-69
2020/12/28 07:16:02;;;;;;;16.60;3.20;;;;;;;;;;5033807;28;20474;-69
2020/12/28 07:18:27;;;;;;;27.77;3.80;;;;;;;;;;5034571;28;20033;-69
2020/12/28 07:20:59;;;;;;;13.65;3.53;;;;;;;;;;5034664;28;20038;-69
2020/12/28 07:23:25;;;;;;;17.05;4.10;;;;;;;;;;5033896;28;20017;-69
2020/12/28 07:26:05;;;;;;;26.02;4.53;;;;;;;;;;5034222;28;20493;-69
2020/12/28 07:28:31;;;;;;;50.10;5.97;;;;;;;;;;5034610;28;20033;-69
2020/12/28 07:30:57;;;;;;;20.92;5.22;;;;;;;;;;5034269;28;20037;-69
2020/12/28 07:33:24;;;;;;;42.45;6.35;;;;;;;;;;5033729;28;20051;-69
2020/12/28 07:35:59;;;;;;;27.65;5.03;;;;;;;;;;5034797;28;20018;-69
2020/12/28 07:38:25;;;;;;;31.45;6.18;;;;;;;;;;5034250;28;20041;-69
2020/12/28 07:40:54;;;;;;;31.75;5.55;;;;;;;;;;5036386;28;20044;-67
2020/12/28 07:43:19;;;;;;;38.78;5.65;;;;;;;;;;5035166;28;20032;-66
2020/12/28 07:45:44;;;;;;;47.53;7.20;;;;;;;;;;5034131;28;20025;-68
2020/12/28 07:48:12;;;;;;;37.08;6.30;;;;;;;;;;5034424;28;20163;-67
2020/12/28 07:50:37;;;;;;;48.45;7.13;;;;;;;;;;5033861;28;20482;-66
2020/12/28 07:53:14;;;;;;;40.08;6.97;;;;;;;;;;5033709;28;20041;-67
2020/12/28 07:55:44;;;;;;;30.02;6.18;;;;;;;;;;5033847;28;20044;-68
2020/12/28 07:58:20;;;;;;;49.17;6.80;;;;;;;;;;5034229;28;20064;-66
2020/12/28 08:00:50;;;;;;;38.38;6.60;;;;;;;;;;5033422;28;20030;-66
2020/12/28 08:03:17;;;;;;;79.60;9.10;;;;;;;;;;5034129;28;20022;-66
2020/12/28 08:05:43;;;;;;;66.28;7.90;;;;;;;;;;5043508;28;20025;-66
2020/12/28 08:08:18;;;;;;;26.98;5.95;;;;;;;;;;5045121;28;20040;-65
2020/12/28 08:10:54;;;;;;;38.72;7.57;;;;;;;;;;5050296;28;20067;-66
2020/12/28 08:13:26;;;;;;;41.40;7.68;;;;;;;;;;5033203;28;20042;-68
2020/12/28 08:15:52;;;;;;;79.60;8.07;;;;;;;;;;5039020;28;20049;-66
2020/12/28 08:18:17;;;;;;;55.35;7.28;;;;;;;;;;5043788;28;20057;-69
2020/12/28 08:20:42;;;;;;;47.30;7.38;;;;;;;;;;5042329;28;20434;-69
2020/12/28 08:23:08;;;;;;;103.68;7.70;;;;;;;;;;5043184;28;20029;-69
2020/12/28 08:25:34;;;;;;;79.40;7.60;;;;;;;;;;5042384;28;20781;-69
2020/12/28 08:28:00;;;;;;;50.10;6.05;;;;;;;;;;5041483;28;20117;-70
2020/12/28 08:30:27;;;;;;;121.82;9.50;;;;;;;;;;5041297;28;20049;-69
2020/12/28 08:32:52;;;;;;;84.88;7.53;;;;;;;;;;5043226;28;20049;-69
2020/12/28 08:35:17;;;;;;;120.90;9.07;;;;;;;;;;5042095;28;20021;-69
2020/12/28 08:37:47;;;;;;;181.65;9.27;;;;;;;;;;5043547;28;20583;-69
2020/12/28 08:40:14;;;;;;;285.40;11.80;;;;;;;;;;5043642;28;20025;-68
2020/12/28 08:42:39;;;;;;;78.38;7.07;;;;;;;;;;5041335;28;20024;-67
2020/12/28 08:45:04;;;;;;;75.68;6.97;;;;;;;;;;5042847;28;20483;-67
2020/12/28 08:47:30;;;;;;;68.93;6.32;;;;;;;;;;5042580;28;20029;-67
2020/12/28 08:49:55;;;;;;;49.25;5.70;;;;;;;;;;5041656;28;20035;-67
2020/12/28 08:52:21;;;;;;;86.45;6.13;;;;;;;;;;5043761;28;20025;-67
2020/12/28 08:54:53;;;;;;;104.85;6.07;;;;;;;;;;5042445;28;20061;-67
2020/12/28 08:57:25;;;;;;;69.53;5.15;;;;;;;;;;5041280;28;20013;-67
2020/12/28 08:59:51;;;;;;;47.45;4.85;;;;;;;;;;5043031;28;20048;-67
2020/12/28 09:02:17;;;;;;;67.53;5.90;;;;;;;;;;5042582;28;21028;-67
2020/12/28 09:04:43;;;;;;;65.07;5.85;;;;;;;;;;5039820;28;20063;-67
2020/12/28 09:07:08;;;;;;;109.25;6.72;;;;;;;;;;5041736;28;20026;-67
2020/12/28 09:09:33;;;;;;;35.10;4.65;;;;;;;;;;5043264;28;20057;-67
2020/12/28 09:11:58;;;;;;;151.32;7.03;;;;;;;;;;5041283;28;20020;-69
2020/12/28 09:14:24;;;;;;;33.67;4.55;;;;;;;;;;5043242;28;20472;-69
2020/12/28 09:16:49;;;;;;;108.05;6.65;;;;;;;;;;5040646;28;20436;-69
2020/12/28 09:19:14;;;;;;;43.13;4.30;;;;;;;;;;5041183;28;20018;-69
2020/12/28 09:21:42;;;;;;;51.03;4.53;;;;;;;;;;5040258;28;20025;-69
2020/12/28 09:24:07;;;;;;;15.68;3.10;;;;;;;;;;5032681;28;20123;-69
2020/12/28 09:26:34;;;;;;;21.38;3.92;;;;;;;;;;5030112;28;20033;-69
2020/12/28 09:28:59;;;;;;;20.52;4.07;;;;;;;;;;5032652;28;20032;-66
2020/12/28 09:31:24;;;;;;;23.92;3.97;;;;;;;;;;5031960;28;20037;-67
2020/12/28 09:33:50;;;;;;;18.98;3.55;;;;;;;;;;5032678;28;20139;-68
2020/12/28 09:36:20;;;;;;;22.58;3.28;;;;;;;;;;5032569;28;20026;-66
2020/12/28 09:38:45;;;;;;;23.48;4.10;;;;;;;;;;5032366;28;20445;-66
2020/12/28 09:41:11;;;;;;;16.75;3.28;;;;;;;;;;5038059;28;20013;-67
2020/12/28 09:43:36;;;;;;;15.27;3.50;;;;;;;;;;5052776;28;20103;-67
2020/12/28 09:46:01;;;;;;;15.40;3.40;;;;;;;;;;5052620;28;20120;-67
2020/12/28 09:48:26;;;;;;;12.10;3.15;;;;;;;;;;5046139;28;20017;-67
2020/12/28 09:50:52;;;;;;;14.18;3.33;;;;;;;;;;5032218;28;20446;-66
2020/12/28 09:53:17;;;;;;;11.77;3.03;;;;;;;;;;5046601;28;20045;-66
2020/12/28 09:55:42;;;;;;;19.77;3.40;;;;;;;;;;5051551;28;20458;-67
2020/12/28 09:58:08;;;;;;;15.05;3.28;;;;;;;;;;5044759;28;20036;-67
2020/12/28 10:00:33;;;;;;;15.38;2.83;;;;;;;;;;5045640;28;20034;-67
2020/12/28 10:02:58;;;;;;;14.20;2.67;;;;;;;;;;5045722;28;20027;-69
2020/12/28 10:05:23;;;;;;;8.52;2.25;;;;;;;;;;5046742;28;20039;-67
2020/12/28 10:07:49;;;;;;;11.73;2.65;;;;;;;;;;5036249;28;20040;-70
2020/12/28 10:10:14;;;;;;;6.95;2.38;;;;;;;;;;5043739;28;20041;-69
2020/12/28 10:12:40;;;;;;;8.05;2.22;;;;;;;;;;5042593;28;20428;-69
2020/12/28 10:15:06;;;;;;;6.63;2.40;;;;;;;;;;5044226;28;20063;-69
2020/12/28 10:17:32;;;;;;;6.53;2.55;;;;;;;;;;5043431;28;20419;-69
2020/12/28 10:19:57;;;;;;;7.40;3.00;;;;;;;;;;5045481;28;20017;-69
2020/12/28 10:22:22;;;;;;;8.02;2.80;;;;;;;;;;5045233;28;20394;-70
2020/12/28 10:24:48;;;;;;;8.13;3.30;;;;;;;;;;5043058;28;20052;-69
2020/12/28 10:27:13;;;;;;;11.00;3.17;;;;;;;;;;5042697;28;20049;-69
2020/12/28 10:29:38;;;;;;;8.73;3.08;;;;;;;;;;5045033;28;20057;-69
2020/12/28 10:32:03;;;;;;;10.80;3.75;;;;;;;;;;5044293;28;20053;-67
2020/12/28 10:34:29;;;;;;;15.07;4.00;;;;;;;;;;5042560;28;20037;-68
2020/12/28 10:36:54;;;;;;;13.15;4.50;;;;;;;;;;5044448;28;20428;-67
2020/12/28 10:39:19;;;;;;;14.02;5.47;;;;;;;;;;5048471;28;20575;-66
2020/12/28 10:41:45;;;;;;;12.07;5.00;;;;;;;;;;5045306;28;20051;-68
2020/12/28 10:44:10;;;;;;;16.50;7.00;;;;;;;;;;5046930;28;20032;-67
2020/12/28 10:46:37;;;;;;;20.98;7.13;;;;;;;;;;5045896;28;20476;-67
2020/12/28 10:49:06;;;;;;;23.88;8.40;;;;;;;;;;5044583;28;20060;-67
2020/12/28 10:51:31;;;;;;;23.02;8.02;;;;;;;;;;5035538;28;20044;-67
2020/12/28 10:53:57;;;;;;;28.33;8.93;;;;;;;;;;5043313;28;20385;-67
2020/12/28 10:56:26;;;;;;;33.17;9.93;;;;;;;;;;5044456;28;20017;-66
2020/12/28 10:58:51;;;;;;;21.65;9.23;;;;;;;;;;5027419;28;20037;-66
2020/12/28 11:01:20;;;;;;;46.00;10.85;;;;;;;;;;5032840;28;20066;-67
2020/12/28 11:03:45;;;;;;;28.17;10.25;;;;;;;;;;5038735;28;20033;-67
2020/12/28 11:06:10;;;;;;;27.33;9.80;;;;;;;;;;5045687;28;20041;-69
2020/12/28 11:08:37;;;;;;;33.92;10.70;;;;;;;;;;5046506;28;20441;-68
2020/12/28 11:11:02;;;;;;;25.13;9.73;;;;;;;;;;5045424;28;20587;-69
2020/12/28 11:13:27;;;;;;;25.80;9.80;;;;;;;;;;5043484;28;20128;-71
2020/12/28 11:15:53;;;;;;;24.80;9.73;;;;;;;;;;5041846;28;20023;-71
2020/12/28 11:18:18;;;;;;;26.13;9.55;;;;;;;;;;5044032;28;20509;-69
2020/12/28 11:20:43;;;;;;;20.40;9.10;;;;;;;;;;5046195;28;20112;-70
2020/12/28 11:23:09;;;;;;;23.13;9.18;;;;;;;;;;5044745;28;20017;-70
2020/12/28 11:25:34;;;;;;;17.70;8.13;;;;;;;;;;5046364;28;20040;-71
2020/12/28 11:27:59;;;;;;;24.83;9.43;;;;;;;;;;5043456;28;20033;-68
2020/12/28 11:30:24;;;;;;;16.33;7.43;;;;;;;;;;5041632;28;20064;-71
2020/12/28 11:32:50;;;;;;;20.73;7.47;;;;;;;;;;5037380;28;20456;-69
2020/12/28 11:35:15;;;;;;;12.52;6.50;;;;;;;;;;5034538;28;20037;-69
2020/12/28 11:37:40;;;;;;;10.95;5.78;;;;;;;;;;5040953;28;20047;-69
2020/12/28 11:40:06;;;;;;;12.82;6.15;;;;;;;;;;5045419;28;20033;-69
2020/12/28 11:42:31;;;;;;;10.55;5.18;;;;;;;;;;5050393;28;20069;-69
2020/12/28 11:44:57;;;;;;;7.22;3.55;;;;;;;;;;5038711;28;20014;-69
2020/12/28 11:47:22;;;;;;;6.18;3.67;;;;;;;;;;5032572;28;20025;-70
2020/12/28 11:49:48;;;;;;;5.30;3.10;;;;;;;;;;4897693;28;20476;-68
2020/12/28 11:52:15;;;;;;;8.10;3.90;;;;;;;;;;4893107;28;20183;-67
2020/12/28 11:54:41;;;;;;;5.25;3.00;;;;;;;;;;4883380;28;20272;-67
2020/12/28 11:57:06;;;;;;;5.68;3.00;;;;;;;;;;4893867;28;20175;-67
2020/12/28 11:59:32;;;;;;;6.18;2.97;;;;;;;;;;4885695;28;20289;-67
2020/12/28 12:01:58;;;;;;;7.57;3.08;;;;;;;;;;4879385;28;20646;-66
2020/12/28 12:07:09;;;;;;;5.45;3.13;;;;;;;;;;4879693;28;20237;-66
2020/12/28 12:09:37;;;;;;;5.72;3.05;;;;;;;;;;4885497;28;20199;-67
2020/12/28 12:12:03;;;;;;;5.78;3.00;;;;;;;;;;4877049;28;20179;-67
2020/12/28 12:14:29;;;;;;;4.97;2.85;;;;;;;;;;4891739;28;20238;-67
2020/12/28 12:16:54;;;;;;;5.90;3.08;;;;;;;;;;4893121;28;20193;-67
2020/12/28 12:19:20;;;;;;;7.07;3.25;;;;;;;;;;4885104;28;20549;-66
2020/12/28 12:21:45;;;;;;;4.97;3.00;;;;;;;;;;4875385;28;20161;-67
2020/12/28 12:24:11;;;;;;;6.35;3.35;;;;;;;;;;4874620;28;20189;-66
2020/12/28 12:26:36;;;;;;;7.72;3.45;;;;;;;;;;4874992;28;20327;-66
2020/12/28 12:29:04;;;;;;;6.47;3.88;;;;;;;;;;4866409;28;20674;-66
2020/12/28 12:31:31;;;;;;;5.75;3.83;;;;;;;;;;4871493;28;20301;-66
2020/12/28 12:33:56;;;;;;;6.80;4.05;;;;;;;;;;4876939;28;20380;-67
2020/12/28 12:36:22;;;;;;;8.88;5.22;;;;;;;;;;4881505;28;20148;-67
2020/12/28 12:38:47;;;;;;;8.32;4.68;;;;;;;;;;4927570;28;20268;-67
2020/12/28 12:41:18;;;;;;;7.75;4.70;;;;;;;;;;4879061;28;20512;-66
2020/12/28 12:43:44;;;;;;;9.32;5.10;;;;;;;;;;4885699;28;20253;-67
2020/12/28 12:46:10;;;;;;;13.15;5.97;;;;;;;;;;4892798;28;20267;-67
2020/12/28 12:48:39;;;;;;;11.63;6.43;;;;;;;;;;4887765;28;20137;-67
2020/12/28 12:51:06;;;;;;;9.70;5.70;;;;;;;;;;4879721;28;20194;-67
2020/12/28 12:53:31;;;;;;;11.00;6.35;;;;;;;;;;4895085;28;20217;-67
2020/12/28 12:55:59;;;;;;;12.73;6.43;;;;;;;;;;4886017;28;20311;-67
2020/12/28 12:58:25;;;;;;;15.75;7.00;;;;;;;;;;4884869;28;20269;-66
2020/12/28 13:00:51;;;;;;;11.63;6.75;;;;;;;;;;4882824;28;20172;-66
2020/12/28 13:03:16;;;;;;;14.02;7.45;;;;;;;;;;4881977;28;20658;-67
2020/12/28 13:05:42;;;;;;;12.40;6.40;;;;;;;;;;4885661;28;20250;-67
2020/12/28 13:08:07;;;;;;;17.73;8.25;;;;;;;;;;4874338;28;20459;-67
2020/12/28 13:10:33;;;;;;;16.33;9.10;;;;;;;;;;4873233;28;20289;-67
2020/12/28 13:12:59;;;;;;;18.05;9.48;;;;;;;;;;4874080;28;20214;-67
2020/12/28 13:15:25;;;;;;;18.58;9.95;;;;;;;;;;4873552;28;20251;-67
2020/12/28 13:17:51;;;;;;;18.60;10.05;;;;;;;;;;4874048;28;20268;-67
2020/12/28 13:20:17;;;;;;;21.95;10.50;;;;;;;;;;4873435;28;20189;-66
2020/12/28 13:22:43;;;;;;;29.33;11.82;;;;;;;;;;4873260;28;20241;-66
2020/12/28 13:25:09;;;;;;;28.70;12.32;;;;;;;;;;4873238;28;20238;-67
2020/12/28 13:27:35;;;;;;;27.55;12.00;;;;;;;;;;4873143;28;20249;-67
2020/12/28 13:30:00;;;;;;;27.08;12.98;;;;;;;;;;4872724;28;20183;-66
2020/12/28 13:32:26;;;;;;;29.50;13.38;;;;;;;;;;4883958;28;20616;-66
2020/12/28 13:34:51;;;;;;;26.50;12.13;;;;;;;;;;4868265;28;20183;-66
2020/12/28 13:37:17;;;;;;;32.50;13.30;;;;;;;;;;4874602;28;20233;-66
2020/12/28 13:39:42;;;;;;;26.15;12.15;;;;;;;;;;4884290;28;20244;-66
2020/12/28 13:42:08;;;;;;;28.33;12.95;;;;;;;;;;4880706;28;20141;-67
2020/12/28 13:44:36;;;;;;;24.95;11.88;;;;;;;;;;4886965;28;20182;-68
2020/12/28 13:47:02;;;;;;;28.17;11.57;;;;;;;;;;4885482;28;20121;-67
2020/12/28 13:49:37;;;;;;;22.58;11.20;;;;;;;;;;4886054;28;20268;-67
2020/12/28 13:52:02;;;;;;;23.83;10.90;;;;;;;;;;4886957;28;20202;-67
2020/12/28 13:54:28;;;;;;;26.83;11.55;;;;;;;;;;4880145;28;20148;-66
2020/12/28 13:56:55;;;;;;;20.42;10.15;;;;;;;;;;4882242;28;20532;-66
2020/12/28 13:59:21;;;;;;;18.10;10.13;;;;;;;;;;4889215;28;20251;-67
2020/12/28 14:01:47;;;;;;;26.92;11.73;;;;;;;;;;4882410;28;20175;-67
2020/12/28 14:04:13;;;;;;;20.92;10.52;;;;;;;;;;4880780;28;20238;-67
2020/12/28 14:06:40;;;;;;;24.05;10.63;;;;;;;;;;4879706;28;20185;-67
2020/12/28 14:09:05;;;;;;;19.58;9.90;;;;;;;;;;4880613;28;20172;-66
2020/12/28 14:11:31;;;;;;;20.65;9.77;;;;;;;;;;4887517;28;20256;-66
2020/12/28 14:13:57;;;;;;;18.95;9.85;;;;;;;;;;4886301;28;20196;-66
2020/12/28 14:16:22;;;;;;;22.30;10.50;;;;;;;;;;4882083;28;20149;-66
2020/12/28 14:18:48;;;;;;;20.27;9.75;;;;;;;;;;4885914;28;20198;-66
2020/12/28 14:21:14;;;;;;;25.08;10.85;;;;;;;;;;4890765;28;20137;-67
2020/12/28 14:23:44;;;;;;;18.80;8.68;;;;;;;;;;4883122;28;20285;-67
2020/12/28 14:26:10;;;;;;;18.73;9.43;;;;;;;;;;4883231;28;20228;-66